createdAt,value
2022-10-16T00:00:15.161Z,13.43
2022-10-16T00:02:49.491Z,13.50
2022-10-16T00:05:26.868Z,13.51
2022-10-16T00:07:59.157Z,13.50
2022-10-16T00:10:34.396Z,13.43
2022-10-16T00:13:06.363Z,13.44
2022-10-16T00:15:44.202Z,13.42
2022-10-16T00:18:21.873Z,13.40
2022-10-16T00:21:08.219Z,13.36
2022-10-16T00:23:48.974Z,13.31
2022-10-16T00:26:24.716Z,13.35
2022-10-16T00:28:56.759Z,13.21
2022-10-16T00:31:26.695Z,13.18
2022-10-16T00:34:00.421Z,13.21
2022-10-16T00:36:33.202Z,13.14
2022-10-16T00:39:10.565Z,13.23
2022-10-16T00:41:43.018Z,13.21
2022-10-16T00:44:50.776Z,13.19
2022-10-16T00:47:48.233Z,13.21
2022-10-16T00:50:46.442Z,13.13
2022-10-16T00:53:23.005Z,13.04
2022-10-16T00:55:55.109Z,13.09
2022-10-16T00:58:22.389Z,13.06
2022-10-16T01:00:59.937Z,12.93
2022-10-16T01:03:42.145Z,12.95
2022-10-16T01:06:20.875Z,12.92
2022-10-16T01:09:12.223Z,12.87
2022-10-16T01:11:58.414Z,12.76
2022-10-16T01:14:54.977Z,12.79
2022-10-16T01:17:39.229Z,12.82
2022-10-16T01:20:28.875Z,12.81
2022-10-16T01:23:26.324Z,12.70
2022-10-16T01:26:20.902Z,12.70
2022-10-16T01:29:07.217Z,12.70
2022-10-16T01:31:50.899Z,12.68
2022-10-16T01:34:37.467Z,12.65
2022-10-16T01:37:26.819Z,12.64
2022-10-16T01:40:05.063Z,12.58
2022-10-16T01:45:43.510Z,12.46
2022-10-16T01:48:26.637Z,12.43
2022-10-16T01:51:16.491Z,12.29
2022-10-16T01:53:57.654Z,12.21
2022-10-16T01:56:36.898Z,12.11
2022-10-16T01:59:22.264Z,12.02
2022-10-16T02:02:07.014Z,11.99
2022-10-16T02:04:47.259Z,11.85
2022-10-16T02:07:19.745Z,11.85
2022-10-16T02:09:56.888Z,11.76
2022-10-16T02:12:50.430Z,11.60
2022-10-16T02:15:22.564Z,11.62
2022-10-16T02:17:51.782Z,11.62
2022-10-16T02:20:33.425Z,11.62
2022-10-16T02:23:04.432Z,11.63
2022-10-16T02:25:41.133Z,11.61
2022-10-16T02:28:23.194Z,11.58
2022-10-16T02:31:06.766Z,11.63
2022-10-16T02:33:41.701Z,11.60
2022-10-16T02:36:17.334Z,11.64
2022-10-16T02:38:49.043Z,11.60
2022-10-16T02:41:27.670Z,11.52
2022-10-16T02:44:04.964Z,11.55
2022-10-16T02:46:37.622Z,11.55
2022-10-16T02:49:09.664Z,11.41
2022-10-16T02:51:47.594Z,11.25
2022-10-16T02:54:25.122Z,11.09
2022-10-16T02:57:02.883Z,10.97
2022-10-16T02:59:37.656Z,10.92
2022-10-16T03:02:18.583Z,10.77
2022-10-16T03:04:56.250Z,10.77
2022-10-16T03:07:28.348Z,10.74
2022-10-16T03:10:03.347Z,10.80
2022-10-16T03:12:46.333Z,10.78
2022-10-16T03:15:26.993Z,10.82
2022-10-16T03:18:01.632Z,10.83
2022-10-16T03:20:33.577Z,10.90
2022-10-16T03:23:05.875Z,10.89
2022-10-16T03:25:46.450Z,10.91
2022-10-16T03:28:28.636Z,10.93
2022-10-16T03:31:09.264Z,11.04
2022-10-16T03:33:44.414Z,11.08
2022-10-16T03:36:24.515Z,10.99
2022-10-16T03:38:52.004Z,10.81
2022-10-16T03:41:24.017Z,10.74
2022-10-16T03:43:59.380Z,10.69
2022-10-16T03:46:36.516Z,10.59
2022-10-16T03:49:11.785Z,10.47
2022-10-16T03:51:46.921Z,10.34
2022-10-16T03:54:27.242Z,10.24
2022-10-16T03:57:07.631Z,10.08
2022-10-16T03:59:42.221Z,10.07
2022-10-16T04:02:19.584Z,9.98
2022-10-16T04:04:55.002Z,9.79
2022-10-16T04:07:27.731Z,9.72
2022-10-16T04:09:59.850Z,9.62
2022-10-16T04:12:37.383Z,9.59
2022-10-16T04:15:12.687Z,9.51
2022-10-16T04:17:47.990Z,9.46
2022-10-16T04:20:17.872Z,9.44
2022-10-16T04:22:52.729Z,9.38
2022-10-16T04:25:27.750Z,9.28
2022-10-16T04:28:06.126Z,9.25
2022-10-16T04:30:39.864Z,9.25
2022-10-16T04:33:15.719Z,9.08
2022-10-16T04:36:02.579Z,9.08
2022-10-16T04:38:40.651Z,9.03
2022-10-16T04:41:15.848Z,9.01
2022-10-16T04:43:53.234Z,8.97
2022-10-16T04:46:33.657Z,9.05
2022-10-16T04:49:10.483Z,9.04
2022-10-16T04:51:37.469Z,8.98
2022-10-16T04:54:18.219Z,8.89
2022-10-16T04:56:53.301Z,8.78
2022-10-16T04:59:26.590Z,8.70
2022-10-16T05:02:07.933Z,8.60
2022-10-16T05:04:42.976Z,8.54
2022-10-16T05:07:20.847Z,8.50
2022-10-16T05:09:58.749Z,8.40
2022-10-16T05:12:35.699Z,8.47
2022-10-16T05:15:13.564Z,8.53
2022-10-16T05:17:51.439Z,8.43
2022-10-16T05:20:32.414Z,8.36
2022-10-16T05:23:16.120Z,8.32
2022-10-16T05:25:59.208Z,8.27
2022-10-16T05:28:32.902Z,8.30
2022-10-16T05:31:08.826Z,8.31
2022-10-16T05:33:45.126Z,8.30
2022-10-16T05:36:25.031Z,8.35
2022-10-16T05:39:00.129Z,8.40
2022-10-16T05:41:35.787Z,8.45
2022-10-16T05:44:12.367Z,8.51
2022-10-16T05:46:47.413Z,8.57
2022-10-16T05:49:22.388Z,8.57
2022-10-16T05:51:54.625Z,8.60
2022-10-16T05:54:31.839Z,8.64
2022-10-16T05:57:06.616Z,8.69
2022-10-16T05:59:44.552Z,8.73
2022-10-16T06:02:25.907Z,9.00
2022-10-16T06:04:55.805Z,9.08
2022-10-16T06:07:33.345Z,9.25
2022-10-16T06:10:08.089Z,9.45
2022-10-16T06:12:46.000Z,9.59
2022-10-16T06:15:21.467Z,9.77
2022-10-16T06:17:51.479Z,10.01
2022-10-16T06:20:32.556Z,10.13
2022-10-16T06:23:02.224Z,10.28
2022-10-16T06:25:40.715Z,10.47
2022-10-16T06:28:12.545Z,10.64
2022-10-16T06:30:44.810Z,10.78
2022-10-16T06:33:16.870Z,10.88
2022-10-16T06:35:49.572Z,11.01
2022-10-16T06:38:26.956Z,11.18
2022-10-16T06:41:13.306Z,11.36
2022-10-16T06:43:48.924Z,11.34
2022-10-16T06:46:27.199Z,11.47
2022-10-16T06:49:04.969Z,11.54
2022-10-16T06:51:43.249Z,11.69
2022-10-16T06:54:18.893Z,11.81
2022-10-16T06:56:54.230Z,11.87
2022-10-16T06:59:28.522Z,12.05
2022-10-16T07:02:06.541Z,12.19
2022-10-16T07:04:41.887Z,12.22
2022-10-16T07:07:17.975Z,12.27
2022-10-16T07:10:01.110Z,12.45
2022-10-16T07:12:30.740Z,12.55
2022-10-16T07:15:00.532Z,12.65
2022-10-16T07:17:35.756Z,12.76
2022-10-16T07:20:11.332Z,12.81
2022-10-16T07:22:46.818Z,12.85
2022-10-16T07:25:28.052Z,12.89
2022-10-16T07:27:59.821Z,13.06
2022-10-16T07:30:32.507Z,13.23
2022-10-16T07:33:10.134Z,13.16
2022-10-16T07:35:56.074Z,13.08
2022-10-16T07:38:31.386Z,13.03
2022-10-16T07:41:14.672Z,13.12
2022-10-16T07:44:02.108Z,13.16
2022-10-16T07:46:36.913Z,13.28
2022-10-16T07:49:12.767Z,13.41
2022-10-16T07:51:50.415Z,13.53
2022-10-16T07:54:27.731Z,13.65
2022-10-16T07:57:03.407Z,13.62
2022-10-16T07:59:34.863Z,13.74
2022-10-16T08:02:06.998Z,13.75
2022-10-16T08:04:42.567Z,13.75
2022-10-16T08:07:17.798Z,13.76
2022-10-16T08:10:00.968Z,13.88
2022-10-16T08:12:36.384Z,13.91
2022-10-16T08:15:15.367Z,13.84
2022-10-16T08:18:00.685Z,14.00
2022-10-16T08:20:35.650Z,14.15
2022-10-16T08:23:15.076Z,14.19
2022-10-16T08:25:47.831Z,14.19
2022-10-16T08:28:23.010Z,14.38
2022-10-16T08:30:54.565Z,14.41
2022-10-16T08:33:29.407Z,14.53
2022-10-16T08:36:05.301Z,14.67
2022-10-16T08:38:52.152Z,14.64
2022-10-16T08:42:14.361Z,14.63
2022-10-16T08:45:20.924Z,14.79
2022-10-16T08:48:26.994Z,14.77
2022-10-16T08:50:57.539Z,14.76
2022-10-16T08:53:31.133Z,14.75
2022-10-16T08:56:17.763Z,14.88
2022-10-16T08:58:59.986Z,15.06
2022-10-16T09:01:50.946Z,15.16
2022-10-16T09:05:04.558Z,15.33
2022-10-16T09:07:49.318Z,15.34
2022-10-16T09:10:40.150Z,15.47
2022-10-16T09:13:24.671Z,15.44
2022-10-16T09:16:05.556Z,15.56
2022-10-16T09:18:58.086Z,15.58
2022-10-16T09:21:49.612Z,15.66
2022-10-16T09:24:29.369Z,15.64
2022-10-16T09:27:07.656Z,15.63
2022-10-16T09:29:42.412Z,15.88
2022-10-16T09:32:16.146Z,16.00
2022-10-16T09:34:53.807Z,15.98
2022-10-16T09:37:34.984Z,16.23
2022-10-16T09:40:36.489Z,16.26
2022-10-16T09:43:21.157Z,16.28
2022-10-16T09:46:29.056Z,16.54
2022-10-16T09:49:05.735Z,16.71
2022-10-16T09:51:38.135Z,16.76
2022-10-16T09:54:12.948Z,16.81
2022-10-16T09:56:53.027Z,16.90
2022-10-16T09:59:30.651Z,17.11
2022-10-16T10:02:06.865Z,17.22
2022-10-16T10:04:52.609Z,17.14
2022-10-16T10:07:28.867Z,17.20
2022-10-16T10:10:09.087Z,17.16
2022-10-16T10:12:49.533Z,17.35
2022-10-16T10:15:24.656Z,17.30
2022-10-16T10:18:09.066Z,17.34
2022-10-16T10:20:39.829Z,17.48
2022-10-16T10:23:33.061Z,17.59
2022-10-16T10:26:17.721Z,17.60
2022-10-16T10:29:09.175Z,17.68
2022-10-16T10:32:17.353Z,17.56
2022-10-16T10:35:19.981Z,17.75
2022-10-16T10:38:15.538Z,17.87
2022-10-16T10:41:07.493Z,17.88
2022-10-16T10:44:11.662Z,18.07
2022-10-16T10:47:12.605Z,18.14
2022-10-16T10:49:49.135Z,18.21
2022-10-16T10:52:59.219Z,18.33
2022-10-16T10:55:46.749Z,18.21
2022-10-16T10:58:43.277Z,18.35
2022-10-16T11:01:36.337Z,18.29
2022-10-16T11:04:33.930Z,18.46
2022-10-16T11:07:15.390Z,18.40
2022-10-16T11:09:59.614Z,18.55
2022-10-16T11:12:48.389Z,18.56
2022-10-16T11:15:38.724Z,18.49
2022-10-16T11:18:22.661Z,18.54
2022-10-16T11:20:57.342Z,18.57
2022-10-16T11:23:45.898Z,18.36
2022-10-16T11:26:26.485Z,18.54
2022-10-16T11:29:04.467Z,18.71
2022-10-16T11:31:48.937Z,18.75
2022-10-16T11:34:30.780Z,18.71
2022-10-16T11:37:45.987Z,18.80
2022-10-16T11:40:34.376Z,18.88
2022-10-16T11:43:27.155Z,18.97
2022-10-16T11:46:10.046Z,18.99
2022-10-16T11:48:51.971Z,19.00
2022-10-16T11:51:42.031Z,19.25
2022-10-16T11:54:43.407Z,19.43
2022-10-16T11:57:22.113Z,19.52
2022-10-16T12:00:09.394Z,19.57
2022-10-16T12:03:06.760Z,19.47
2022-10-16T12:05:56.443Z,19.49
2022-10-16T12:08:29.433Z,19.42
2022-10-16T12:11:23.321Z,19.55
2022-10-16T12:14:10.888Z,19.73
2022-10-16T12:17:00.674Z,19.89
2022-10-16T12:19:36.499Z,19.90
2022-10-16T12:22:27.170Z,19.75
2022-10-16T12:25:02.985Z,19.92
2022-10-16T12:27:44.594Z,20.02
2022-10-16T12:30:24.386Z,20.09
2022-10-16T12:33:25.297Z,20.09
2022-10-16T12:35:53.218Z,19.98
2022-10-16T12:38:36.425Z,19.89
2022-10-16T12:41:15.287Z,20.17
2022-10-16T12:43:48.978Z,20.21
2022-10-16T12:46:18.243Z,20.46
2022-10-16T12:49:08.403Z,20.67
2022-10-16T12:51:54.172Z,20.64
2022-10-16T12:54:45.772Z,20.59
2022-10-16T12:57:55.816Z,20.56
2022-10-16T13:00:57.406Z,20.48
2022-10-16T13:03:30.427Z,20.43
2022-10-16T13:06:15.048Z,20.32
2022-10-16T13:08:57.489Z,20.48
2022-10-16T13:11:48.145Z,20.73
2022-10-16T13:14:34.417Z,20.66
2022-10-16T13:17:26.453Z,20.57
2022-10-16T13:21:03.450Z,20.79
2022-10-16T13:23:49.964Z,20.88
2022-10-16T13:26:45.015Z,21.08
2022-10-16T13:29:31.463Z,21.22
2022-10-16T13:32:21.830Z,21.41
2022-10-16T13:35:05.094Z,21.50
2022-10-16T13:37:42.901Z,21.53
2022-10-16T13:40:32.935Z,21.15
2022-10-16T13:43:09.917Z,21.07
2022-10-16T13:45:58.964Z,21.13
2022-10-16T13:48:37.847Z,21.37
2022-10-16T13:53:56.474Z,21.31
2022-10-16T13:56:36.263Z,20.85
2022-10-16T13:59:42.679Z,20.94
2022-10-16T14:02:41.251Z,20.88
2022-10-16T14:05:14.912Z,20.72
2022-10-16T14:07:51.764Z,20.69
2022-10-16T14:10:31.433Z,20.64
2022-10-16T14:13:11.674Z,20.67
2022-10-16T14:15:51.135Z,20.59
2022-10-16T14:18:33.295Z,20.59
2022-10-16T14:21:16.248Z,20.43
2022-10-16T14:23:49.033Z,20.49
2022-10-16T14:26:29.517Z,20.57
2022-10-16T14:29:18.845Z,20.36
2022-10-16T14:32:25.616Z,20.34
2022-10-16T14:35:00.540Z,20.35
2022-10-16T14:37:37.472Z,20.32
2022-10-16T14:40:19.159Z,20.29
2022-10-16T14:42:54.684Z,20.15
2022-10-16T14:45:29.581Z,20.14
2022-10-16T14:48:20.812Z,20.11
2022-10-16T14:50:53.344Z,19.85
2022-10-16T14:53:27.914Z,19.80
2022-10-16T14:56:17.987Z,19.90
2022-10-16T14:58:54.471Z,20.05
2022-10-16T15:01:29.459Z,20.16
2022-10-16T15:04:05.315Z,20.08
2022-10-16T15:06:46.493Z,20.11
2022-10-16T15:09:26.861Z,20.03
2022-10-16T15:12:05.346Z,19.82
2022-10-16T15:14:34.612Z,19.52
2022-10-16T15:17:17.448Z,19.32
2022-10-16T15:19:52.683Z,19.05
2022-10-16T15:22:25.563Z,18.86
2022-10-16T15:25:02.355Z,18.74
2022-10-16T15:27:40.811Z,18.55
2022-10-16T15:30:20.830Z,18.36
2022-10-16T15:32:55.025Z,18.20
2022-10-16T15:35:39.167Z,18.06
2022-10-16T15:38:14.517Z,17.86
2022-10-16T15:40:52.400Z,17.63
2022-10-16T15:43:28.337Z,17.31
2022-10-16T15:46:12.232Z,17.14
2022-10-16T15:48:44.700Z,17.00
2022-10-16T15:51:23.544Z,16.80
2022-10-16T15:54:06.185Z,16.65
2022-10-16T15:56:47.405Z,16.50
2022-10-16T15:59:16.673Z,16.34
2022-10-16T16:01:54.436Z,16.17
2022-10-16T16:04:44.784Z,16.01
2022-10-16T16:07:20.681Z,15.86
2022-10-16T16:10:01.395Z,15.60
2022-10-16T16:12:41.752Z,15.44
2022-10-16T16:15:19.908Z,15.23
2022-10-16T16:17:54.819Z,15.01
2022-10-16T16:20:32.307Z,14.85
2022-10-16T16:23:17.825Z,14.77
2022-10-16T16:25:47.597Z,14.62
2022-10-16T16:28:22.490Z,14.54
2022-10-16T16:30:58.172Z,14.43
2022-10-16T16:33:33.286Z,14.30
2022-10-16T16:36:16.316Z,14.18
2022-10-16T16:38:54.220Z,14.10
2022-10-16T16:41:35.053Z,14.03
2022-10-16T16:44:31.110Z,13.89
2022-10-16T16:47:05.883Z,13.78
2022-10-16T16:49:41.608Z,13.71
2022-10-16T16:52:25.266Z,13.59
2022-10-16T16:55:02.897Z,13.54
2022-10-16T16:57:40.977Z,13.44
2022-10-16T17:00:16.739Z,13.33
2022-10-16T17:03:01.345Z,13.20
2022-10-16T17:05:32.635Z,13.13
2022-10-16T17:08:16.018Z,13.09
2022-10-16T17:10:54.273Z,13.00
2022-10-16T17:13:35.379Z,12.91
2022-10-16T17:16:13.656Z,12.81
2022-10-16T17:18:53.904Z,12.75
2022-10-16T17:21:31.183Z,12.64
2022-10-16T17:24:15.920Z,12.58
2022-10-16T17:26:53.830Z,12.49
2022-10-16T17:29:34.229Z,12.45
2022-10-16T17:32:12.463Z,12.38
2022-10-16T17:34:47.822Z,12.32
2022-10-16T17:37:20.416Z,12.27
2022-10-16T17:39:59.962Z,12.22
2022-10-16T17:42:32.199Z,12.15
2022-10-16T17:45:10.646Z,12.05
2022-10-16T17:47:53.915Z,11.95
2022-10-16T17:50:29.120Z,11.88
2022-10-16T17:53:00.603Z,11.82
2022-10-16T17:55:42.954Z,11.71
2022-10-16T17:58:17.987Z,11.66
2022-10-16T18:00:53.249Z,11.58
2022-10-16T18:03:28.411Z,11.56
2022-10-16T18:06:04.926Z,11.49
2022-10-16T18:08:48.149Z,11.42
2022-10-16T18:11:21.043Z,11.30
2022-10-16T18:14:08.225Z,11.27
2022-10-16T18:16:59.344Z,11.26
2022-10-16T18:19:46.489Z,11.24
2022-10-16T18:22:32.818Z,11.22
2022-10-16T18:25:11.218Z,11.20
2022-10-16T18:27:52.217Z,11.14
2022-10-16T18:30:27.136Z,11.07
2022-10-16T18:33:05.386Z,11.02
2022-10-16T18:35:41.455Z,10.96
2022-10-16T18:38:18.697Z,10.89
2022-10-16T18:40:51.377Z,10.83
2022-10-16T18:43:34.025Z,10.79
2022-10-16T18:46:13.710Z,10.73
2022-10-16T18:48:54.542Z,10.63
2022-10-16T18:51:32.421Z,10.60
2022-10-16T18:54:11.350Z,10.57
2022-10-16T18:56:49.404Z,10.53
2022-10-16T18:59:27.965Z,10.50
2022-10-16T19:02:03.293Z,10.48
2022-10-16T19:04:41.206Z,10.50
2022-10-16T19:07:15.676Z,10.48
2022-10-16T19:10:03.513Z,10.52
2022-10-16T19:12:38.537Z,10.53
2022-10-16T19:15:14.473Z,10.52
2022-10-16T19:17:54.891Z,10.43
2022-10-16T19:20:24.512Z,10.40
2022-10-16T19:23:02.702Z,10.36
2022-10-16T19:25:52.076Z,10.31
2022-10-16T19:28:27.035Z,10.29
2022-10-16T19:31:11.530Z,10.25
2022-10-16T19:34:07.496Z,10.21
2022-10-16T19:36:50.033Z,10.13
2022-10-16T19:39:39.879Z,10.13
2022-10-16T19:42:18.787Z,10.09
2022-10-16T19:45:01.339Z,10.06
2022-10-16T19:47:38.634Z,9.99
2022-10-16T19:50:32.532Z,9.93
2022-10-16T19:53:09.807Z,9.88
2022-10-16T19:55:45.924Z,9.90
2022-10-16T19:58:26.851Z,9.85
2022-10-16T20:00:58.222Z,9.82
2022-10-16T20:03:33.440Z,9.79
2022-10-16T20:06:09.490Z,9.75
2022-10-16T20:08:52.966Z,9.71
2022-10-16T20:11:34.613Z,9.70
2022-10-16T20:14:15.194Z,9.71
2022-10-16T20:16:53.358Z,9.71
2022-10-16T20:19:28.727Z,9.63
2022-10-16T20:21:58.492Z,9.59
2022-10-16T20:24:33.463Z,9.59
2022-10-16T20:27:08.386Z,9.58
2022-10-16T20:29:51.325Z,9.55
2022-10-16T20:32:23.191Z,9.53
2022-10-16T20:35:04.357Z,9.48
2022-10-16T20:37:34.602Z,9.40
2022-10-16T20:40:12.498Z,9.42
2022-10-16T20:42:42.557Z,9.40
2022-10-16T20:45:22.249Z,9.38
2022-10-16T20:47:54.124Z,9.33
2022-10-16T20:50:28.358Z,9.34
2022-10-16T20:53:01.667Z,9.30
2022-10-16T20:55:38.192Z,9.25
2022-10-16T20:58:18.105Z,9.22
2022-10-16T21:00:58.961Z,9.19
2022-10-16T21:03:40.088Z,9.13
2022-10-16T21:06:18.514Z,9.13
2022-10-16T21:08:48.387Z,9.10
2022-10-16T21:14:10.834Z,9.14
2022-10-16T21:16:46.481Z,9.12
2022-10-16T21:19:24.261Z,9.09
2022-10-16T21:22:01.583Z,9.09
2022-10-16T21:24:40.177Z,9.07
2022-10-16T21:27:20.187Z,9.05
2022-10-16T21:30:00.802Z,8.95
2022-10-16T21:32:41.206Z,8.98
2022-10-16T21:35:09.122Z,9.02
2022-10-16T21:37:51.046Z,9.01
2022-10-16T21:40:33.983Z,9.01
2022-10-16T21:43:11.807Z,9.03
2022-10-16T21:45:46.983Z,9.02
2022-10-16T21:48:29.657Z,8.98
2022-10-16T21:51:13.416Z,8.90
2022-10-16T21:53:51.789Z,8.84
2022-10-16T21:56:32.065Z,8.78
2022-10-16T21:59:19.718Z,8.71
2022-10-16T22:01:57.204Z,8.68
2022-10-16T22:04:32.190Z,8.64
2022-10-16T22:07:15.545Z,8.59
2022-10-16T22:09:55.398Z,8.56
2022-10-16T22:12:43.050Z,8.51
2022-10-16T22:15:17.920Z,8.43
2022-10-16T22:17:55.653Z,8.40
2022-10-16T22:20:30.738Z,8.40
2022-10-16T22:23:12.434Z,8.37
2022-10-16T22:25:50.400Z,8.33
2022-10-16T22:28:31.650Z,8.29
2022-10-16T22:31:04.906Z,8.24
2022-10-16T22:33:45.204Z,8.20
2022-10-16T22:36:24.145Z,8.18
2022-10-16T22:38:55.804Z,8.14
2022-10-16T22:41:24.809Z,8.11
2022-10-16T22:44:05.921Z,8.10
2022-10-16T22:46:40.724Z,8.07
2022-10-16T22:49:23.623Z,8.04
2022-10-16T22:52:04.019Z,8.03
2022-10-16T22:54:42.024Z,8.00
2022-10-16T22:57:22.005Z,7.98
2022-10-16T22:59:56.371Z,7.99
2022-10-16T23:02:34.103Z,7.93
2022-10-16T23:05:09.758Z,7.92
2022-10-16T23:07:44.691Z,7.89
2022-10-16T23:10:30.673Z,7.89
2022-10-16T23:13:10.991Z,7.85
2022-10-16T23:15:51.762Z,7.83
2022-10-16T23:18:32.049Z,7.81
2022-10-16T23:21:15.489Z,7.78
2022-10-16T23:24:00.703Z,7.78
2022-10-16T23:26:33.219Z,7.79
2022-10-16T23:29:10.699Z,7.77
2022-10-16T23:31:48.062Z,7.73
2022-10-16T23:34:23.362Z,7.70
2022-10-16T23:37:03.743Z,7.71
2022-10-16T23:39:40.980Z,7.67
2022-10-16T23:42:18.100Z,7.64
2022-10-16T23:44:55.397Z,7.61
2022-10-16T23:47:31.268Z,7.55
2022-10-16T23:50:09.320Z,7.52
2022-10-16T23:52:50.400Z,7.52
2022-10-16T23:55:28.640Z,7.49
2022-10-16T23:58:03.529Z,7.46
